createdAt,value
2017-05-21T00:00:57.154Z,0
2017-05-21T00:02:07.109Z,0
2017-05-21T00:03:16.747Z,0
2017-05-21T00:04:26.700Z,0
2017-05-21T00:05:36.971Z,0
2017-05-21T00:06:47.239Z,0
2017-05-21T00:07:57.507Z,0
2017-05-21T00:09:07.458Z,0
2017-05-21T00:10:17.773Z,0
2017-05-21T00:11:28.035Z,0
2017-05-21T00:12:37.674Z,0
2017-05-21T00:13:47.941Z,0
2017-05-21T00:14:57.893Z,0
2017-05-21T00:16:07.842Z,0
2017-05-21T00:17:17.779Z,0
2017-05-21T00:18:27.423Z,0
2017-05-21T00:19:37.061Z,0
2017-05-21T00:20:47.011Z,0
2017-05-21T00:21:57.278Z,0
2017-05-21T00:23:07.539Z,0
2017-05-21T00:24:17.809Z,0
2017-05-21T00:25:28.082Z,0
2017-05-21T00:26:38.041Z,0
2017-05-21T00:27:47.994Z,0
2017-05-21T00:28:57.951Z,0
2017-05-21T00:30:07.588Z,0
2017-05-21T00:31:16.914Z,0
2017-05-21T00:32:27.218Z,0
2017-05-21T00:33:36.876Z,0
2017-05-21T00:34:46.511Z,0
2017-05-21T00:35:56.770Z,0
2017-05-21T00:37:07.036Z,0
2017-05-21T00:38:17.053Z,0
2017-05-21T00:39:27.011Z,0
2017-05-21T00:40:36.653Z,0
2017-05-21T00:41:46.300Z,0
2017-05-21T00:42:56.575Z,0
2017-05-21T00:44:06.216Z,0
2017-05-21T00:45:15.855Z,0
2017-05-21T00:46:25.803Z,0
2017-05-21T00:47:35.747Z,0
2017-05-21T00:48:46.016Z,0
2017-05-21T00:49:56.276Z,0
2017-05-21T00:51:06.545Z,0
2017-05-21T00:52:16.182Z,0
2017-05-21T00:53:26.134Z,0
2017-05-21T00:54:36.396Z,0
2017-05-21T00:55:46.659Z,0
2017-05-21T00:56:56.606Z,0
2017-05-21T00:58:06.559Z,0
2017-05-21T00:59:16.194Z,0
2017-05-21T01:00:26.148Z,0
2017-05-21T01:01:36.409Z,0
2017-05-21T01:02:46.676Z,0
2017-05-21T01:03:57.020Z,0
2017-05-21T01:05:06.992Z,0
2017-05-21T01:06:16.627Z,0
2017-05-21T01:07:26.613Z,0
2017-05-21T01:08:36.566Z,0
2017-05-21T01:09:46.834Z,0
2017-05-21T01:10:57.097Z,0
2017-05-21T01:12:07.355Z,0
2017-05-21T01:13:16.994Z,0
2017-05-21T01:14:27.259Z,0
2017-05-21T01:15:37.211Z,0
2017-05-21T01:16:47.164Z,0
2017-05-21T01:17:57.434Z,0
2017-05-21T01:19:07.704Z,0
2017-05-21T01:20:17.967Z,0
2017-05-21T01:21:28.231Z,0
2017-05-21T01:22:38.502Z,0
2017-05-21T01:23:48.768Z,0
2017-05-21T01:24:59.031Z,0
2017-05-21T01:26:09.294Z,0
2017-05-21T01:27:18.615Z,0
2017-05-21T01:28:28.566Z,0
2017-05-21T01:29:38.834Z,0
2017-05-21T01:30:48.780Z,0
2017-05-21T01:31:59.047Z,0
2017-05-21T01:33:08.993Z,0
2017-05-21T01:34:18.632Z,0
2017-05-21T01:35:28.588Z,0
2017-05-21T01:36:38.237Z,0
2017-05-21T01:37:48.510Z,0
2017-05-21T01:38:58.774Z,0
2017-05-21T01:40:08.727Z,0
2017-05-21T01:41:18.677Z,0
2017-05-21T01:42:28.317Z,0
2017-05-21T01:43:38.273Z,0
2017-05-21T01:44:48.543Z,0
2017-05-21T01:45:58.812Z,0
2017-05-21T01:47:08.764Z,0
2017-05-21T01:48:18.726Z,4
2017-05-21T01:49:28.676Z,4
2017-05-21T01:50:38.940Z,4
2017-05-21T01:51:48.588Z,4
2017-05-21T01:52:58.539Z,0
2017-05-21T01:54:08.806Z,0
2017-05-21T01:55:18.439Z,4
2017-05-21T01:56:28.701Z,4
2017-05-21T01:57:38.344Z,4
2017-05-21T01:58:48.612Z,4
2017-05-21T01:59:58.252Z,4
2017-05-21T02:01:08.200Z,8
2017-05-21T02:03:49.533Z,8
2017-05-21T02:04:58.857Z,4
2017-05-21T02:06:09.120Z,8
2017-05-21T02:07:18.439Z,8
2017-05-21T02:08:32.221Z,8
2017-05-21T02:09:41.854Z,8
2017-05-21T02:10:52.118Z,8
2017-05-21T02:12:02.385Z,8
2017-05-21T02:13:12.024Z,12
2017-05-21T02:14:22.292Z,12
2017-05-21T02:15:32.247Z,16
2017-05-21T02:16:42.198Z,24
2017-05-21T02:17:52.465Z,28
2017-05-21T02:19:02.755Z,36
2017-05-21T02:20:12.643Z,40
2017-05-21T02:21:22.905Z,44
2017-05-21T02:22:32.857Z,48
2017-05-21T02:23:42.811Z,52
2017-05-21T02:24:52.835Z,52
2017-05-21T02:26:02.788Z,48
2017-05-21T02:27:13.045Z,48
2017-05-21T02:28:22.055Z,48
2017-05-21T02:29:32.003Z,48
2017-05-21T02:30:41.636Z,52
2017-05-21T02:31:51.899Z,44
2017-05-21T02:33:02.159Z,36
2017-05-21T02:34:12.106Z,28
2017-05-21T02:35:22.068Z,24
2017-05-21T02:36:31.386Z,28
2017-05-21T02:37:41.028Z,28
2017-05-21T02:38:51.292Z,36
2017-05-21T02:40:01.244Z,44
2017-05-21T02:41:11.510Z,44
2017-05-21T02:42:21.160Z,48
2017-05-21T02:43:30.482Z,48
2017-05-21T02:44:39.808Z,44
2017-05-21T02:45:49.754Z,44
2017-05-21T02:46:59.710Z,48
2017-05-21T02:48:09.985Z,52
2017-05-21T02:49:19.936Z,60
2017-05-21T02:50:30.200Z,60
2017-05-21T02:51:39.836Z,64
2017-05-21T02:52:49.787Z,60
2017-05-21T02:54:00.059Z,60
2017-05-21T02:55:09.692Z,56
2017-05-21T02:56:19.335Z,64
2017-05-21T02:57:29.607Z,80
2017-05-21T02:58:39.563Z,92
2017-05-21T02:59:49.516Z,104
2017-05-21T03:00:59.831Z,108
2017-05-21T03:02:09.829Z,88
2017-05-21T03:03:19.469Z,68
2017-05-21T03:04:29.452Z,68
2017-05-21T03:05:39.410Z,80
2017-05-21T03:06:49.671Z,92
2017-05-21T03:07:59.624Z,88
2017-05-21T03:09:09.890Z,84
2017-05-21T03:10:19.526Z,80
2017-05-21T03:11:29.786Z,100
2017-05-21T03:12:39.744Z,164
2017-05-21T03:13:50.020Z,248
2017-05-21T03:14:59.977Z,280
2017-05-21T03:16:09.930Z,248
2017-05-21T03:17:19.253Z,200
2017-05-21T03:18:29.524Z,164
2017-05-21T03:19:39.793Z,164
2017-05-21T03:20:50.060Z,200
2017-05-21T03:22:00.327Z,228
2017-05-21T03:23:10.275Z,212
2017-05-21T03:24:20.547Z,184
2017-05-21T03:25:30.807Z,172
2017-05-21T03:26:40.137Z,168
2017-05-21T03:27:50.409Z,180
2017-05-21T03:29:00.674Z,204
2017-05-21T03:30:10.620Z,192
2017-05-21T03:31:20.885Z,188
2017-05-21T03:32:30.834Z,204
2017-05-21T03:33:41.100Z,212
2017-05-21T03:34:51.051Z,220
2017-05-21T03:36:01.318Z,240
2017-05-21T03:37:11.263Z,248
2017-05-21T03:38:20.904Z,240
2017-05-21T03:39:30.544Z,248
2017-05-21T03:40:40.553Z,268
2017-05-21T03:41:50.821Z,288
2017-05-21T03:43:01.100Z,304
2017-05-21T03:44:11.052Z,348
2017-05-21T03:45:20.690Z,424
2017-05-21T03:46:30.953Z,516
2017-05-21T03:47:41.224Z,588
2017-05-21T03:48:51.493Z,660
2017-05-21T03:50:01.764Z,788
2017-05-21T03:51:11.714Z,976
2017-05-21T03:52:21.663Z,1100
2017-05-21T03:53:31.301Z,1140
2017-05-21T03:54:41.247Z,1112
2017-05-21T03:55:51.192Z,1068
2017-05-21T03:57:01.454Z,940
2017-05-21T03:58:11.718Z,796
2017-05-21T03:59:21.674Z,664
2017-05-21T04:00:31.624Z,552
2017-05-21T04:01:41.257Z,508
2017-05-21T04:02:51.206Z,508
2017-05-21T04:04:01.164Z,536
2017-05-21T04:05:11.425Z,596
2017-05-21T04:06:21.374Z,660
2017-05-21T04:07:31.325Z,628
2017-05-21T04:08:41.281Z,484
2017-05-21T04:09:51.231Z,332
2017-05-21T04:11:01.501Z,300
2017-05-21T04:12:11.466Z,364
2017-05-21T04:13:21.412Z,452
2017-05-21T04:14:31.367Z,504
2017-05-21T04:15:41.314Z,500
2017-05-21T04:16:51.259Z,476
2017-05-21T04:18:01.534Z,468
2017-05-21T04:19:11.172Z,452
2017-05-21T04:20:20.818Z,440
2017-05-21T04:21:30.768Z,424
2017-05-21T04:22:40.716Z,380
2017-05-21T04:23:50.665Z,328
2017-05-21T04:25:00.303Z,308
2017-05-21T04:26:10.562Z,312
2017-05-21T04:27:20.839Z,324
2017-05-21T04:28:30.786Z,352
2017-05-21T04:29:40.421Z,364
2017-05-21T04:30:50.687Z,368
2017-05-21T04:32:00.949Z,368
2017-05-21T04:33:11.209Z,352
2017-05-21T04:34:21.485Z,336
2017-05-21T04:35:31.435Z,332
2017-05-21T04:36:41.708Z,332
2017-05-21T04:37:51.979Z,360
2017-05-21T04:39:02.248Z,396
2017-05-21T04:40:11.885Z,424
2017-05-21T04:41:21.854Z,440
2017-05-21T04:42:31.487Z,452
2017-05-21T04:43:41.510Z,440
2017-05-21T04:44:51.467Z,460
2017-05-21T04:46:01.726Z,492
2017-05-21T04:47:11.362Z,524
2017-05-21T04:48:20.683Z,540
2017-05-21T04:49:30.322Z,540
2017-05-21T04:50:39.639Z,528
2017-05-21T04:51:49.300Z,500
2017-05-21T04:52:59.561Z,500
2017-05-21T04:54:09.517Z,552
2017-05-21T04:55:19.465Z,600
2017-05-21T04:56:28.783Z,596
2017-05-21T04:57:38.421Z,568
2017-05-21T04:58:48.445Z,524
2017-05-21T04:59:58.707Z,476
2017-05-21T05:01:08.656Z,432
2017-05-21T05:02:18.349Z,412
2017-05-21T05:03:28.308Z,372
2017-05-21T05:04:38.257Z,344
2017-05-21T05:05:48.208Z,360
2017-05-21T05:06:58.478Z,444
2017-05-21T05:08:08.427Z,520
2017-05-21T05:09:18.686Z,516
2017-05-21T05:10:28.954Z,504
2017-05-21T05:11:39.216Z,524
2017-05-21T05:12:49.481Z,532
2017-05-21T05:13:59.749Z,544
2017-05-21T05:15:09.703Z,604
2017-05-21T05:16:19.657Z,648
2017-05-21T05:17:29.603Z,628
2017-05-21T05:18:39.554Z,584
2017-05-21T05:19:49.503Z,580
2017-05-21T05:20:59.764Z,604
2017-05-21T05:22:09.716Z,588
2017-05-21T05:23:19.668Z,544
2017-05-21T05:24:29.939Z,520
2017-05-21T05:25:39.888Z,524
2017-05-21T05:26:49.841Z,552
2017-05-21T05:28:00.163Z,576
2017-05-21T05:29:10.111Z,584
2017-05-21T05:30:20.400Z,620
2017-05-21T05:31:30.350Z,676
2017-05-21T05:32:40.624Z,740
2017-05-21T05:33:50.889Z,780
2017-05-21T05:35:00.841Z,828
2017-05-21T05:36:11.103Z,852
2017-05-21T05:37:21.371Z,860
2017-05-21T05:38:31.320Z,888
2017-05-21T05:39:41.268Z,892
2017-05-21T05:40:51.220Z,920
2017-05-21T05:42:01.547Z,1044
2017-05-21T05:43:11.820Z,1212
2017-05-21T05:44:21.453Z,1336
2017-05-21T05:45:30.774Z,1336
2017-05-21T05:46:41.046Z,1356
2017-05-21T05:47:51.319Z,1376
2017-05-21T05:49:01.585Z,1352
2017-05-21T05:50:11.853Z,1332
2017-05-21T05:51:20.866Z,1392
2017-05-21T05:52:30.817Z,1476
2017-05-21T05:53:40.767Z,1600
2017-05-21T05:54:50.722Z,1616
2017-05-21T05:56:00.987Z,1640
2017-05-21T05:57:11.256Z,1540
2017-05-21T05:58:20.581Z,1344
2017-05-21T05:59:30.285Z,1196
2017-05-21T06:00:40.233Z,1208
2017-05-21T06:01:50.496Z,1288
2017-05-21T06:03:00.765Z,1360
2017-05-21T06:04:11.029Z,1436
2017-05-21T06:05:20.358Z,1460
2017-05-21T06:06:30.001Z,1536
2017-05-21T06:07:39.967Z,1620
2017-05-21T06:08:50.237Z,1624
2017-05-21T06:10:00.503Z,1648
2017-05-21T06:11:10.770Z,1636
2017-05-21T06:12:20.406Z,1628
2017-05-21T06:13:30.097Z,1612
2017-05-21T06:14:39.743Z,1500
2017-05-21T06:15:49.688Z,1412
2017-05-21T06:16:59.949Z,1388
2017-05-21T06:18:10.216Z,1416
2017-05-21T06:19:19.859Z,1368
2017-05-21T06:20:29.499Z,1356
2017-05-21T06:21:39.448Z,1372
2017-05-21T06:22:49.404Z,1420
2017-05-21T06:23:59.683Z,1448
2017-05-21T06:25:09.947Z,1472
2017-05-21T06:26:20.214Z,1448
2017-05-21T06:27:30.479Z,1432
2017-05-21T06:28:40.113Z,1404
2017-05-21T06:29:50.066Z,1452
2017-05-21T06:31:00.331Z,1536
2017-05-21T06:32:10.282Z,1672
2017-05-21T06:33:20.240Z,1796
2017-05-21T06:34:30.511Z,1912
2017-05-21T06:35:40.777Z,2092
2017-05-21T06:36:50.410Z,2316
2017-05-21T06:38:00.674Z,2488
2017-05-21T06:39:10.948Z,2512
2017-05-21T06:40:21.209Z,2532
2017-05-21T06:41:31.157Z,2488
2017-05-21T06:42:40.796Z,2492
2017-05-21T06:43:50.441Z,2576
2017-05-21T06:45:00.394Z,2640
2017-05-21T06:46:10.653Z,2780
2017-05-21T06:47:20.916Z,2924
2017-05-21T06:48:30.880Z,2924
2017-05-21T06:49:40.832Z,3052
2017-05-21T06:50:51.107Z,3124
2017-05-21T06:52:01.049Z,3508
2017-05-21T06:53:11.311Z,3736
2017-05-21T06:54:21.580Z,3848
2017-05-21T06:55:31.532Z,3840
2017-05-21T06:56:41.798Z,3752
2017-05-21T06:57:51.121Z,3872
2017-05-21T06:59:01.390Z,3836
2017-05-21T07:00:11.346Z,3876
2017-05-21T07:01:21.292Z,3784
2017-05-21T07:02:31.245Z,3520
2017-05-21T07:03:41.507Z,3540
2017-05-21T07:04:51.819Z,3732
2017-05-21T07:06:01.770Z,4064
2017-05-21T07:07:11.711Z,4684
2017-05-21T07:08:21.979Z,4736
2017-05-21T07:09:31.936Z,5020
2017-05-21T07:10:42.203Z,4900
2017-05-21T07:11:52.467Z,4760
2017-05-21T07:13:02.105Z,4660
2017-05-21T07:14:12.370Z,4468
2017-05-21T07:15:22.636Z,4252
2017-05-21T07:16:32.586Z,3900
2017-05-21T07:17:42.227Z,4024
2017-05-21T07:18:51.871Z,4176
2017-05-21T07:20:01.822Z,4164
2017-05-21T07:21:12.095Z,4192
2017-05-21T07:22:22.360Z,4380
2017-05-21T07:23:32.308Z,4388
2017-05-21T07:24:42.577Z,4356
2017-05-21T07:25:52.531Z,4252
2017-05-21T07:27:02.797Z,4276
2017-05-21T07:28:13.059Z,4280
2017-05-21T07:29:23.319Z,4352
2017-05-21T07:30:32.964Z,4380
2017-05-21T07:31:43.220Z,4308
2017-05-21T07:32:53.482Z,4448
2017-05-21T07:34:03.746Z,4732
2017-05-21T07:35:14.009Z,4604
2017-05-21T07:36:23.656Z,4336
2017-05-21T07:37:33.290Z,4120
2017-05-21T07:38:42.926Z,4032
2017-05-21T07:39:52.901Z,4092
2017-05-21T07:41:02.852Z,4080
2017-05-21T07:42:13.119Z,4044
2017-05-21T07:43:22.757Z,3904
2017-05-21T07:44:32.720Z,3924
2017-05-21T07:45:42.666Z,3628
2017-05-21T07:46:51.987Z,3364
2017-05-21T07:48:01.945Z,3412
2017-05-21T07:49:12.206Z,3104
2017-05-21T07:50:22.162Z,2844
2017-05-21T07:51:32.110Z,2780
2017-05-21T07:52:42.398Z,3004
2017-05-21T07:53:52.034Z,3056
2017-05-21T07:55:02.301Z,3152
2017-05-21T07:56:12.570Z,3420
2017-05-21T07:57:22.883Z,3496
2017-05-21T07:58:32.842Z,3392
2017-05-21T07:59:42.485Z,3520
2017-05-21T08:00:52.440Z,3628
2017-05-21T08:02:02.073Z,3772
2017-05-21T08:03:12.028Z,3844
2017-05-21T08:04:22.305Z,3992
2017-05-21T08:05:32.628Z,4304
2017-05-21T08:06:42.590Z,4860
2017-05-21T08:07:52.853Z,5656
2017-05-21T08:09:03.117Z,5716
2017-05-21T08:10:12.125Z,5616
2017-05-21T08:11:21.779Z,5396
2017-05-21T08:12:32.046Z,5256
2017-05-21T08:13:42.006Z,5032
2017-05-21T08:14:52.276Z,4920
2017-05-21T08:16:02.589Z,4552
2017-05-21T08:17:12.289Z,4788
2017-05-21T08:18:22.243Z,4416
2017-05-21T08:19:32.200Z,4416
2017-05-21T08:20:42.154Z,4340
2017-05-21T08:21:52.111Z,4280
2017-05-21T08:23:02.408Z,4360
2017-05-21T08:24:12.044Z,4444
2017-05-21T08:25:22.305Z,4852
2017-05-21T08:26:32.577Z,4972
2017-05-21T08:27:42.875Z,4484
2017-05-21T08:28:52.516Z,4100
2017-05-21T08:30:02.463Z,3856
2017-05-21T08:31:12.416Z,4036
2017-05-21T08:32:22.684Z,4204
2017-05-21T08:33:32.644Z,4252
2017-05-21T08:34:42.591Z,4192
2017-05-21T08:35:52.224Z,4000
2017-05-21T08:37:02.489Z,4016
2017-05-21T08:38:13.090Z,4132
2017-05-21T08:39:23.354Z,4156
2017-05-21T08:40:32.988Z,4448
2017-05-21T08:41:42.939Z,4712
2017-05-21T08:42:52.585Z,4884
2017-05-21T08:44:02.855Z,5244
2017-05-21T08:45:13.122Z,5980
2017-05-21T08:46:22.763Z,6632
2017-05-21T08:47:32.402Z,7280
2017-05-21T08:48:42.355Z,7556
2017-05-21T08:49:52.358Z,7064
2017-05-21T08:51:02.307Z,7240
2017-05-21T08:52:12.259Z,7284
2017-05-21T08:53:22.214Z,7396
2017-05-21T08:54:31.540Z,7220
2017-05-21T08:55:41.808Z,6724
2017-05-21T08:56:51.442Z,6220
2017-05-21T08:58:01.714Z,5796
2017-05-21T08:59:11.986Z,4976
2017-05-21T09:00:22.314Z,4160
2017-05-21T09:01:32.268Z,3652
2017-05-21T09:02:42.220Z,3324
2017-05-21T09:03:51.862Z,3188
2017-05-21T09:05:02.133Z,3244
2017-05-21T09:06:12.402Z,3540
2017-05-21T09:07:22.354Z,3912
2017-05-21T09:08:31.994Z,4196
2017-05-21T09:09:41.957Z,4424
2017-05-21T09:10:51.917Z,4780
2017-05-21T09:12:01.559Z,5256
2017-05-21T09:13:11.823Z,5764
2017-05-21T09:14:22.097Z,6188
2017-05-21T09:15:31.738Z,6336
2017-05-21T09:16:41.697Z,6580
2017-05-21T09:17:51.646Z,6948
2017-05-21T09:19:01.597Z,7008
2017-05-21T09:20:11.239Z,6568
2017-05-21T09:21:21.522Z,5988
2017-05-21T09:22:31.477Z,5592
2017-05-21T09:23:41.114Z,5296
2017-05-21T09:24:50.753Z,5072
2017-05-21T09:26:00.396Z,4612
2017-05-21T09:27:10.037Z,4116
2017-05-21T09:28:19.680Z,3780
2017-05-21T09:29:29.645Z,3608
2017-05-21T09:30:39.325Z,3680
2017-05-21T09:31:49.273Z,3840
2017-05-21T09:32:59.230Z,4052
2017-05-21T09:34:09.497Z,4460
2017-05-21T09:35:19.445Z,4936
2017-05-21T09:36:28.766Z,5684
2017-05-21T09:37:38.402Z,6720
2017-05-21T09:38:48.051Z,7628
2017-05-21T09:39:57.691Z,7912
2017-05-21T09:41:07.957Z,8060
2017-05-21T09:42:18.221Z,8212
2017-05-21T09:43:28.173Z,8304
2017-05-21T09:44:38.124Z,8604
2017-05-21T09:45:48.401Z,8628
2017-05-21T09:46:58.042Z,8024
2017-05-21T09:48:08.307Z,7456
2017-05-21T09:49:18.577Z,7548
2017-05-21T09:50:28.211Z,7568
2017-05-21T09:51:37.851Z,7160
2017-05-21T09:52:47.493Z,6192
2017-05-21T09:53:57.141Z,5552
2017-05-21T09:55:07.097Z,6356
2017-05-21T09:56:17.052Z,7672
2017-05-21T09:57:27.308Z,8728
2017-05-21T09:58:36.945Z,9060
2017-05-21T09:59:46.584Z,9104
2017-05-21T10:00:56.536Z,9512
2017-05-21T10:02:06.799Z,9996
2017-05-21T10:03:17.071Z,10552
2017-05-21T10:04:27.341Z,11024
2017-05-21T10:05:36.983Z,12540
2017-05-21T10:06:46.672Z,12364
2017-05-21T10:07:55.684Z,12420
2017-05-21T10:09:05.955Z,12880
2017-05-21T10:10:16.227Z,12648
2017-05-21T10:11:26.184Z,12872
2017-05-21T10:12:35.822Z,13848
2017-05-21T10:13:46.101Z,15308
2017-05-21T10:14:55.742Z,17792
2017-05-21T10:16:05.690Z,17056
2017-05-21T10:17:15.330Z,15600
2017-05-21T10:18:25.287Z,15212
2017-05-21T10:19:34.930Z,14260
2017-05-21T10:20:44.884Z,13348
2017-05-21T10:21:54.517Z,12740
2017-05-21T10:23:04.160Z,11372
2017-05-21T10:24:14.438Z,10492
2017-05-21T10:25:24.705Z,10704
2017-05-21T10:26:34.352Z,10384
2017-05-21T10:27:44.318Z,9604
2017-05-21T10:28:54.276Z,8900
2017-05-21T10:30:04.237Z,7292
2017-05-21T10:31:14.221Z,5900
2017-05-21T10:32:24.174Z,5484
2017-05-21T10:33:34.439Z,5232
2017-05-21T10:34:43.762Z,4264
2017-05-21T10:35:53.412Z,3904
2017-05-21T10:37:03.365Z,3360
2017-05-21T10:38:13.003Z,3068
2017-05-21T10:39:22.642Z,3340
2017-05-21T10:40:32.277Z,3800
2017-05-21T10:41:42.237Z,3924
2017-05-21T10:42:52.504Z,4064
2017-05-21T10:44:02.144Z,3936
2017-05-21T10:45:12.411Z,4536
2017-05-21T10:46:22.357Z,6016
2017-05-21T10:47:32.660Z,6996
2017-05-21T10:48:42.925Z,8156
2017-05-21T10:49:52.883Z,8180
2017-05-21T10:51:02.526Z,8144
2017-05-21T10:52:12.474Z,7704
2017-05-21T10:53:22.431Z,7804
2017-05-21T10:54:32.390Z,7236
2017-05-21T10:55:41.711Z,7084
2017-05-21T10:56:51.982Z,7348
2017-05-21T10:58:02.001Z,7660
2017-05-21T10:59:11.963Z,7660
2017-05-21T11:00:21.919Z,7860
2017-05-21T11:01:31.557Z,8184
2017-05-21T11:02:41.511Z,8996
2017-05-21T11:03:51.474Z,9060
2017-05-21T11:05:01.429Z,8964
2017-05-21T11:06:11.693Z,8452
2017-05-21T11:07:21.957Z,10288
2017-05-21T11:08:31.909Z,13032
2017-05-21T11:09:41.235Z,12612
2017-05-21T11:10:50.918Z,11032
2017-05-21T11:12:00.871Z,9420
2017-05-21T11:13:10.826Z,7896
2017-05-21T11:14:20.788Z,6716
2017-05-21T11:15:31.052Z,6856
2017-05-21T11:16:41.320Z,7928
2017-05-21T11:17:51.279Z,8076
2017-05-21T11:19:01.543Z,7164
2017-05-21T11:20:11.808Z,6196
2017-05-21T11:21:22.076Z,6076
2017-05-21T11:22:31.723Z,6400
2017-05-21T11:23:41.876Z,6328
2017-05-21T11:24:51.838Z,6852
2017-05-21T11:26:01.478Z,6948
2017-05-21T11:27:11.434Z,7344
2017-05-21T11:28:21.713Z,7916
2017-05-21T11:29:31.993Z,8748
2017-05-21T11:30:41.947Z,10108
2017-05-21T11:31:51.585Z,10868
2017-05-21T11:33:01.533Z,12380
2017-05-21T11:34:11.495Z,13592
2017-05-21T11:35:21.768Z,14420
2017-05-21T11:36:31.724Z,18720
2017-05-21T11:37:41.677Z,20832
2017-05-21T11:38:51.632Z,19392
2017-05-21T11:40:01.661Z,22912
2017-05-21T11:41:11.929Z,28256
2017-05-21T11:42:22.197Z,25664
2017-05-21T11:43:32.159Z,24544
2017-05-21T11:44:41.798Z,22560
2017-05-21T11:45:51.752Z,28704
2017-05-21T11:47:01.391Z,95168
2017-05-21T11:48:11.378Z,96384
2017-05-21T11:49:21.335Z,90912
2017-05-21T11:50:31.612Z,21888
2017-05-21T11:51:41.571Z,22528
2017-05-21T11:52:51.225Z,21952
2017-05-21T11:54:01.496Z,23584
2017-05-21T11:55:11.458Z,26080
2017-05-21T11:56:21.425Z,24288
2017-05-21T11:57:31.696Z,24512
2017-05-21T11:58:41.350Z,28896
2017-05-21T11:59:51.313Z,18688
2017-05-21T12:01:01.591Z,14996
2017-05-21T12:02:11.557Z,20160
2017-05-21T12:03:21.844Z,41952
2017-05-21T12:04:31.811Z,16496
2017-05-21T12:05:42.087Z,78144
2017-05-21T12:06:51.420Z,80800
2017-05-21T12:08:01.693Z,42944
2017-05-21T12:09:11.658Z,96352
2017-05-21T12:10:21.929Z,81440
2017-05-21T12:11:32.211Z,80896
2017-05-21T12:12:42.177Z,90240
2017-05-21T12:13:52.133Z,86848
2017-05-21T12:15:02.098Z,78944
2017-05-21T12:16:11.747Z,79104
2017-05-21T12:17:22.017Z,69952
2017-05-21T12:18:32.353Z,82528
2017-05-21T12:19:42.631Z,79360
2017-05-21T12:20:52.905Z,83072
2017-05-21T12:22:03.185Z,82080
2017-05-21T12:23:13.148Z,77248
2017-05-21T12:24:23.431Z,76128
2017-05-21T12:25:33.712Z,81888
2017-05-21T12:26:43.051Z,85568
2017-05-21T12:27:53.021Z,62048
2017-05-21T12:29:02.986Z,37408
2017-05-21T12:30:12.961Z,40704
2017-05-21T12:31:23.238Z,82048
2017-05-21T12:32:33.201Z,85344
2017-05-21T12:33:42.543Z,84448
2017-05-21T12:34:51.889Z,86240
2017-05-21T12:36:01.862Z,91360
2017-05-21T12:37:11.835Z,28736
2017-05-21T12:38:21.807Z,70464
2017-05-21T12:39:31.772Z,91744
2017-05-21T12:40:41.733Z,89376
2017-05-21T12:41:51.073Z,85312
2017-05-21T12:43:00.422Z,83488
2017-05-21T12:44:10.708Z,81184
2017-05-21T12:45:20.685Z,40864
2017-05-21T12:46:30.652Z,79040
2017-05-21T12:47:40.970Z,54688
2017-05-21T12:48:50.950Z,32544
2017-05-21T12:50:00.925Z,48768
2017-05-21T12:51:10.581Z,66080
2017-05-21T12:52:20.866Z,101184
2017-05-21T12:53:31.165Z,92672
2017-05-21T12:54:41.455Z,81088
2017-05-21T12:55:51.428Z,92384
2017-05-21T12:57:01.084Z,88000
2017-05-21T12:58:10.428Z,90656
2017-05-21T12:59:20.726Z,90912
2017-05-21T13:00:31.017Z,87456
2017-05-21T13:01:41.300Z,83680
2017-05-21T13:02:50.963Z,15812
2017-05-21T13:04:00.939Z,18464
2017-05-21T13:05:10.594Z,81408
2017-05-21T13:06:20.875Z,66784
2017-05-21T13:07:44.385Z,79232
2017-05-21T13:08:54.666Z,87392
2017-05-21T13:10:04.644Z,86464
2017-05-21T13:11:14.614Z,92384
2017-05-21T13:12:24.894Z,97536
2017-05-21T13:13:35.490Z,84864
2017-05-21T13:14:45.469Z,87264
2017-05-21T13:15:55.436Z,93024
2017-05-21T13:17:05.405Z,98528
2017-05-21T13:18:15.690Z,98752
2017-05-21T13:19:29.170Z,97952
2017-05-21T13:20:39.146Z,95616
2017-05-21T13:21:49.118Z,94720
2017-05-21T13:22:58.773Z,97728
2017-05-21T13:24:08.114Z,93376
2017-05-21T13:25:17.974Z,96480
2017-05-21T13:26:27.945Z,91072
2017-05-21T13:27:38.232Z,85408
2017-05-21T13:28:47.888Z,88576
2017-05-21T13:29:57.870Z,90496
2017-05-21T13:31:08.156Z,88672
2017-05-21T13:32:18.131Z,87648
2017-05-21T13:33:28.424Z,88480
2017-05-21T13:34:38.394Z,89120
2017-05-21T13:35:48.055Z,91744
2017-05-21T13:36:58.031Z,96864
2017-05-21T13:38:08.008Z,95072
2017-05-21T13:39:18.298Z,89152
2017-05-21T13:40:27.969Z,84448
2017-05-21T13:41:38.254Z,79520
2017-05-21T13:42:47.912Z,83776
2017-05-21T13:43:57.892Z,89664
2017-05-21T13:45:07.903Z,91936
2017-05-21T13:46:17.876Z,90720
2017-05-21T13:47:27.539Z,92224
2017-05-21T13:48:37.822Z,94624
2017-05-21T13:49:48.106Z,73920
2017-05-21T13:50:58.444Z,73248
2017-05-21T13:52:08.428Z,44672
2017-05-21T13:53:18.720Z,88864
2017-05-21T13:54:29.010Z,12260
2017-05-21T13:55:38.671Z,13524
2017-05-21T13:56:48.653Z,14496
2017-05-21T13:57:58.314Z,17952
2017-05-21T13:59:08.287Z,60384
2017-05-21T14:00:18.253Z,93024
2017-05-21T14:01:28.538Z,91872
2017-05-21T14:02:41.855Z,89952
2017-05-21T14:03:51.858Z,85056
2017-05-21T14:05:00.886Z,32768
2017-05-21T14:06:10.227Z,90688
2017-05-21T14:07:20.511Z,85824
2017-05-21T14:08:30.166Z,85312
2017-05-21T14:09:39.820Z,86432
2017-05-21T14:10:49.794Z,10976
2017-05-21T14:11:59.768Z,9004
2017-05-21T14:13:09.109Z,9748
2017-05-21T14:14:19.389Z,10720
2017-05-21T14:15:29.055Z,12480
2017-05-21T14:16:38.713Z,11748
2017-05-21T14:17:49.008Z,9976
2017-05-21T14:18:58.983Z,10104
2017-05-21T14:20:09.266Z,56672
2017-05-21T14:21:18.918Z,11864
2017-05-21T14:22:29.197Z,11788
2017-05-21T14:23:39.475Z,12608
2017-05-21T14:24:49.126Z,12716
2017-05-21T14:25:58.463Z,12696
2017-05-21T14:27:08.748Z,24416
2017-05-21T14:28:18.402Z,11948
2017-05-21T14:29:28.696Z,11368
2017-05-21T14:30:38.659Z,8192
2017-05-21T14:31:48.841Z,8356
2017-05-21T14:32:58.488Z,10328
2017-05-21T14:34:08.140Z,11416
2017-05-21T14:35:17.476Z,11700
2017-05-21T14:36:26.510Z,10692
2017-05-21T14:37:36.170Z,43840
2017-05-21T14:38:45.512Z,16928
2017-05-21T14:39:55.790Z,10888
2017-05-21T14:41:05.438Z,12356
2017-05-21T14:42:15.088Z,76416
2017-05-21T14:43:24.740Z,14768
2017-05-21T14:44:34.070Z,13072
2017-05-21T14:45:43.130Z,11852
2017-05-21T14:46:52.180Z,55680
2017-05-21T14:48:02.145Z,86080
2017-05-21T14:49:12.423Z,84736
2017-05-21T14:50:22.695Z,86400
2017-05-21T14:51:32.968Z,67712
2017-05-21T14:52:42.927Z,14880
2017-05-21T14:53:52.897Z,14108
2017-05-21T14:55:02.236Z,11936
2017-05-21T14:56:11.885Z,17952
2017-05-21T14:57:21.542Z,12480
2017-05-21T14:58:31.817Z,9596
2017-05-21T14:59:41.780Z,9012
2017-05-21T15:00:51.433Z,7800
2017-05-21T15:02:01.397Z,7556
2017-05-21T15:03:11.674Z,9468
2017-05-21T15:04:21.958Z,10668
2017-05-21T15:05:31.925Z,11820
2017-05-21T15:06:41.885Z,13916
2017-05-21T15:07:51.532Z,22176
2017-05-21T15:09:01.184Z,15472
2017-05-21T15:10:11.147Z,12788
2017-05-21T15:11:21.420Z,10600
2017-05-21T15:12:31.380Z,9036
2017-05-21T15:13:41.670Z,8124
2017-05-21T15:14:51.641Z,7608
2017-05-21T15:16:00.977Z,8612
2017-05-21T15:17:10.623Z,8904
2017-05-21T15:18:20.900Z,8292
2017-05-21T15:19:30.864Z,7988
2017-05-21T15:20:40.510Z,7116
2017-05-21T15:21:49.844Z,5372
2017-05-21T15:22:59.808Z,4480
2017-05-21T15:24:10.084Z,4220
2017-05-21T15:25:20.357Z,3776
2017-05-21T15:26:30.325Z,3636
2017-05-21T15:27:40.603Z,3848
2017-05-21T15:28:50.568Z,3992
2017-05-21T15:30:00.533Z,3860
2017-05-21T15:31:10.181Z,3564
2017-05-21T15:32:20.454Z,4072
2017-05-21T15:33:30.415Z,4736
2017-05-21T15:34:40.385Z,4956
2017-05-21T15:35:50.651Z,4848
2017-05-21T15:37:00.607Z,4996
2017-05-21T15:38:10.246Z,5180
2017-05-21T15:39:20.202Z,4752
2017-05-21T15:40:30.472Z,4584
2017-05-21T15:41:40.427Z,4404
2017-05-21T15:42:49.760Z,4072
2017-05-21T15:43:59.089Z,3692
2017-05-21T15:45:09.049Z,3440
2017-05-21T15:46:19.015Z,3236
2017-05-21T15:47:29.284Z,3348